KTOP/TOP METAR and TAF weather

Enter ICAO airport designator
Station Type Date Time Source
KTOP METAR 2019/06/27 07:53 UTC NOAA

KTOP 270753Z AUTO 19005KT 10SM CLR 25/21 A3007 RMK AO2 SLP172 T02500211


Station Type Date Time Source
KTOP Decoded METAR 2019/06/27 07:53 UTC NOAA

TOPEKA BILLARD MUNICIPAL AIRPORT, KS, United States (KTOP) 39-04N 95-38W 268M
Jun 27, 2019 - 03:53 AM EDT / 2019.06.27 0753 UTC
Wind: from the S (190 degrees) at 6 MPH (5 KT):0
Visibility: 10 mile(s):0
Sky conditions: clear
Temperature: 77.0 F (25.0 C)
Dew Point: 70.0 F (21.1 C)
Relative Humidity: 78%
Pressure (altimeter): 30.07 in. Hg (1018 hPa)
ob: KTOP 270753Z AUTO 19005KT 10SM CLR 25/21 A3007 RMK AO2 SLP172 T02500211
cycle: 8

Station Type Date Time Source
KTOP TAF 2019/06/27 06:22 UTC NOAA

TAF KTOP 270520Z 2706/2806 14005KT P6SM FEW250
FM271600 17012G21KT P6SM FEW200
FM280000 18014KT P6SM SKC

Example: see airport list